sensor_id;sensor_type;location;lat;lon;timestamp;P1;durP1;ratioP1;P2;durP2;ratioP2
24357;SDS011;13668;52.154;5.580;2023-01-26T00:01:55;136.52;;;46.17;;
24357;SDS011;13668;52.154;5.580;2023-01-26T00:04:22;131.10;;;47.03;;
24357;SDS011;13668;52.154;5.580;2023-01-26T00:06:51;135.02;;;47.92;;
24357;SDS011;13668;52.154;5.580;2023-01-26T00:09:17;125.70;;;45.17;;
24357;SDS011;13668;52.154;5.580;2023-01-26T00:11:43;123.28;;;46.53;;
24357;SDS011;13668;52.154;5.580;2023-01-26T00:14:09;121.60;;;43.28;;
24357;SDS011;13668;52.154;5.580;2023-01-26T00:16:35;120.07;;;44.72;;
24357;SDS011;13668;52.154;5.580;2023-01-26T00:19:02;124.10;;;45.75;;
24357;SDS011;13668;52.154;5.580;2023-01-26T00:21:28;130.20;;;45.78;;
24357;SDS011;13668;52.154;5.580;2023-01-26T00:23:54;131.13;;;47.53;;
24357;SDS011;13668;52.154;5.580;2023-01-26T00:26:21;123.82;;;45.97;;
24357;SDS011;13668;52.154;5.580;2023-01-26T00:28:47;124.07;;;44.55;;
24357;SDS011;13668;52.154;5.580;2023-01-26T00:31:14;122.47;;;45.38;;
24357;SDS011;13668;52.154;5.580;2023-01-26T00:33:40;122.55;;;42.28;;
24357;SDS011;13668;52.154;5.580;2023-01-26T00:36:07;126.55;;;45.30;;
24357;SDS011;13668;52.154;5.580;2023-01-26T00:38:33;120.60;;;42.70;;
24357;SDS011;13668;52.154;5.580;2023-01-26T00:40:59;115.63;;;42.03;;
24357;SDS011;13668;52.154;5.580;2023-01-26T00:43:25;120.00;;;44.10;;
24357;SDS011;13668;52.154;5.580;2023-01-26T00:45:51;112.45;;;42.40;;
24357;SDS011;13668;52.154;5.580;2023-01-26T00:48:17;120.85;;;43.20;;
24357;SDS011;13668;52.154;5.580;2023-01-26T00:50:43;129.25;;;43.13;;
24357;SDS011;13668;52.154;5.580;2023-01-26T00:53:09;117.43;;;44.05;;
24357;SDS011;13668;52.154;5.580;2023-01-26T00:55:35;113.97;;;41.35;;
24357;SDS011;13668;52.154;5.580;2023-01-26T00:58:01;107.03;;;40.90;;
24357;SDS011;13668;52.154;5.580;2023-01-26T01:00:28;108.95;;;37.97;;
24357;SDS011;13668;52.154;5.580;2023-01-26T01:02:55;102.40;;;38.80;;
24357;SDS011;13668;52.154;5.580;2023-01-26T01:05:21;109.28;;;40.67;;
24357;SDS011;13668;52.154;5.580;2023-01-26T01:07:47;110.70;;;40.53;;
24357;SDS011;13668;52.154;5.580;2023-01-26T01:10:13;103.65;;;39.60;;
24357;SDS011;13668;52.154;5.580;2023-01-26T01:12:39;105.07;;;39.72;;
24357;SDS011;13668;52.154;5.580;2023-01-26T01:15:06;104.40;;;37.53;;
24357;SDS011;13668;52.154;5.580;2023-01-26T01:17:32;114.57;;;39.15;;
24357;SDS011;13668;52.154;5.580;2023-01-26T01:20:00;106.45;;;39.63;;
24357;SDS011;13668;52.154;5.580;2023-01-26T01:22:26;106.28;;;39.95;;
24357;SDS011;13668;52.154;5.580;2023-01-26T01:24:52;98.53;;;35.83;;
24357;SDS011;13668;52.154;5.580;2023-01-26T01:27:18;103.13;;;40.15;;
24357;SDS011;13668;52.154;5.580;2023-01-26T01:29:44;94.88;;;36.53;;
24357;SDS011;13668;52.154;5.580;2023-01-26T01:32:10;97.80;;;36.53;;
24357;SDS011;13668;52.154;5.580;2023-01-26T01:34:36;92.32;;;36.88;;
24357;SDS011;13668;52.154;5.580;2023-01-26T01:37:02;93.75;;;35.80;;
24357;SDS011;13668;52.154;5.580;2023-01-26T01:39:28;91.97;;;33.88;;
24357;SDS011;13668;52.154;5.580;2023-01-26T01:41:54;89.75;;;35.15;;
24357;SDS011;13668;52.154;5.580;2023-01-26T01:44:21;80.60;;;33.05;;
24357;SDS011;13668;52.154;5.580;2023-01-26T01:51:52;88.45;;;33.45;;
24357;SDS011;13668;52.154;5.580;2023-01-26T01:54:21;87.93;;;34.88;;
24357;SDS011;13668;52.154;5.580;2023-01-26T01:56:49;87.45;;;36.08;;
24357;SDS011;13668;52.154;5.580;2023-01-26T01:59:16;85.80;;;34.67;;
24357;SDS011;13668;52.154;5.580;2023-01-26T02:01:44;87.55;;;34.17;;
24357;SDS011;13668;52.154;5.580;2023-01-26T02:04:11;95.00;;;36.03;;
24357;SDS011;13668;52.154;5.580;2023-01-26T02:06:48;92.35;;;34.42;;
24357;SDS011;13668;52.154;5.580;2023-01-26T02:09:15;84.90;;;32.90;;
24357;SDS011;13668;52.154;5.580;2023-01-26T02:12:01;87.20;;;34.25;;
24357;SDS011;13668;52.154;5.580;2023-01-26T02:14:28;86.60;;;32.58;;
24357;SDS011;13668;52.154;5.580;2023-01-26T02:16:54;82.78;;;31.60;;
24357;SDS011;13668;52.154;5.580;2023-01-26T02:19:25;81.40;;;31.83;;
24357;SDS011;13668;52.154;5.580;2023-01-26T02:21:52;75.03;;;32.53;;
24357;SDS011;13668;52.154;5.580;2023-01-26T02:24:24;76.82;;;30.10;;
24357;SDS011;13668;52.154;5.580;2023-01-26T02:26:52;77.55;;;32.97;;
24357;SDS011;13668;52.154;5.580;2023-01-26T02:29:18;78.13;;;29.85;;
24357;SDS011;13668;52.154;5.580;2023-01-26T02:31:44;85.38;;;33.67;;
24357;SDS011;13668;52.154;5.580;2023-01-26T02:34:10;79.15;;;31.92;;
24357;SDS011;13668;52.154;5.580;2023-01-26T02:36:36;78.70;;;32.25;;
24357;SDS011;13668;52.154;5.580;2023-01-26T02:41:46;70.60;;;30.25;;
24357;SDS011;13668;52.154;5.580;2023-01-26T02:44:31;80.85;;;31.58;;
24357;SDS011;13668;52.154;5.580;2023-01-26T02:46:57;78.80;;;31.95;;
24357;SDS011;13668;52.154;5.580;2023-01-26T02:49:23;80.60;;;30.92;;
24357;SDS011;13668;52.154;5.580;2023-01-26T02:52:08;75.15;;;30.38;;
24357;SDS011;13668;52.154;5.580;2023-01-26T02:54:34;83.07;;;31.75;;
24357;SDS011;13668;52.154;5.580;2023-01-26T02:57:18;78.25;;;30.75;;
24357;SDS011;13668;52.154;5.580;2023-01-26T02:59:44;76.70;;;30.45;;
24357;SDS011;13668;52.154;5.580;2023-01-26T03:02:10;79.20;;;30.98;;
24357;SDS011;13668;52.154;5.580;2023-01-26T03:04:36;79.80;;;30.00;;
24357;SDS011;13668;52.154;5.580;2023-01-26T03:07:02;80.97;;;31.30;;
24357;SDS011;13668;52.154;5.580;2023-01-26T03:09:28;80.82;;;32.40;;
24357;SDS011;13668;52.154;5.580;2023-01-26T03:11:54;73.07;;;28.88;;
24357;SDS011;13668;52.154;5.580;2023-01-26T03:14:20;74.07;;;29.15;;
24357;SDS011;13668;52.154;5.580;2023-01-26T03:16:46;70.55;;;29.35;;
24357;SDS011;13668;52.154;5.580;2023-01-26T03:19:13;79.90;;;29.17;;
24357;SDS011;13668;52.154;5.580;2023-01-26T03:21:57;83.72;;;30.42;;
24357;SDS011;13668;52.154;5.580;2023-01-26T03:24:42;76.88;;;29.40;;
24357;SDS011;13668;52.154;5.580;2023-01-26T03:27:28;70.38;;;28.73;;
24357;SDS011;13668;52.154;5.580;2023-01-26T03:29:55;79.05;;;29.48;;
24357;SDS011;13668;52.154;5.580;2023-01-26T03:32:21;74.75;;;29.35;;
24357;SDS011;13668;52.154;5.580;2023-01-26T03:34:47;76.85;;;30.25;;
24357;SDS011;13668;52.154;5.580;2023-01-26T03:37:13;80.28;;;30.35;;
24357;SDS011;13668;52.154;5.580;2023-01-26T03:39:39;69.30;;;27.02;;
24357;SDS011;13668;52.154;5.580;2023-01-26T03:42:24;72.47;;;27.83;;
24357;SDS011;13668;52.154;5.580;2023-01-26T03:45:09;73.38;;;28.80;;
24357;SDS011;13668;52.154;5.580;2023-01-26T03:48:01;78.40;;;28.80;;
24357;SDS011;13668;52.154;5.580;2023-01-26T03:50:46;66.50;;;26.13;;
24357;SDS011;13668;52.154;5.580;2023-01-26T03:53:31;64.18;;;25.92;;
24357;SDS011;13668;52.154;5.580;2023-01-26T03:56:15;66.60;;;26.65;;
24357;SDS011;13668;52.154;5.580;2023-01-26T03:58:49;59.63;;;24.20;;
24357;SDS011;13668;52.154;5.580;2023-01-26T04:01:16;56.58;;;24.13;;
24357;SDS011;13668;52.154;5.580;2023-01-26T04:03:48;56.45;;;23.92;;
24357;SDS011;13668;52.154;5.580;2023-01-26T04:06:33;59.28;;;22.92;;
24357;SDS011;13668;52.154;5.580;2023-01-26T04:09:18;57.38;;;21.17;;
24357;SDS011;13668;52.154;5.580;2023-01-26T04:11:44;61.47;;;22.95;;
24357;SDS011;13668;52.154;5.580;2023-01-26T04:14:11;55.92;;;22.08;;
24357;SDS011;13668;52.154;5.580;2023-01-26T04:16:56;51.17;;;22.02;;
24357;SDS011;13668;52.154;5.580;2023-01-26T04:19:41;52.70;;;22.80;;
24357;SDS011;13668;52.154;5.580;2023-01-26T04:22:25;58.47;;;23.08;;
24357;SDS011;13668;52.154;5.580;2023-01-26T04:24:51;52.83;;;22.45;;
24357;SDS011;13668;52.154;5.580;2023-01-26T04:27:23;51.72;;;22.48;;
24357;SDS011;13668;52.154;5.580;2023-01-26T04:29:49;54.10;;;22.40;;
24357;SDS011;13668;52.154;5.580;2023-01-26T04:32:18;55.50;;;22.08;;
24357;SDS011;13668;52.154;5.580;2023-01-26T04:34:44;50.17;;;20.60;;
24357;SDS011;13668;52.154;5.580;2023-01-26T04:37:10;46.13;;;20.20;;
24357;SDS011;13668;52.154;5.580;2023-01-26T04:39:36;47.38;;;20.10;;
24357;SDS011;13668;52.154;5.580;2023-01-26T04:42:02;51.90;;;21.38;;
24357;SDS011;13668;52.154;5.580;2023-01-26T04:44:28;48.05;;;21.02;;
24357;SDS011;13668;52.154;5.580;2023-01-26T04:46:54;53.97;;;21.98;;
24357;SDS011;13668;52.154;5.580;2023-01-26T04:49:20;43.50;;;19.65;;
24357;SDS011;13668;52.154;5.580;2023-01-26T04:51:46;49.80;;;21.42;;
24357;SDS011;13668;52.154;5.580;2023-01-26T04:54:12;45.63;;;20.10;;
24357;SDS011;13668;52.154;5.580;2023-01-26T04:56:38;50.40;;;21.02;;
24357;SDS011;13668;52.154;5.580;2023-01-26T04:59:04;51.15;;;22.98;;
24357;SDS011;13668;52.154;5.580;2023-01-26T05:01:31;50.40;;;22.27;;
24357;SDS011;13668;52.154;5.580;2023-01-26T05:04:00;50.60;;;22.45;;
24357;SDS011;13668;52.154;5.580;2023-01-26T05:06:27;51.50;;;22.50;;
24357;SDS011;13668;52.154;5.580;2023-01-26T05:08:53;53.10;;;23.63;;
24357;SDS011;13668;52.154;5.580;2023-01-26T05:11:19;50.03;;;21.60;;
24357;SDS011;13668;52.154;5.580;2023-01-26T05:13:45;55.55;;;24.75;;
24357;SDS011;13668;52.154;5.580;2023-01-26T05:16:11;51.03;;;22.15;;
24357;SDS011;13668;52.154;5.580;2023-01-26T05:18:40;50.97;;;21.58;;
24357;SDS011;13668;52.154;5.580;2023-01-26T05:21:07;53.90;;;24.48;;
24357;SDS011;13668;52.154;5.580;2023-01-26T05:23:33;52.00;;;22.45;;
24357;SDS011;13668;52.154;5.580;2023-01-26T05:25:59;52.35;;;23.55;;
24357;SDS011;13668;52.154;5.580;2023-01-26T05:28:25;56.30;;;22.58;;
24357;SDS011;13668;52.154;5.580;2023-01-26T05:30:51;58.33;;;24.60;;
24357;SDS011;13668;52.154;5.580;2023-01-26T05:33:17;53.42;;;23.27;;
24357;SDS011;13668;52.154;5.580;2023-01-26T05:35:46;55.00;;;22.83;;
24357;SDS011;13668;52.154;5.580;2023-01-26T05:38:13;57.97;;;24.60;;
24357;SDS011;13668;52.154;5.580;2023-01-26T05:40:39;57.35;;;23.10;;
24357;SDS011;13668;52.154;5.580;2023-01-26T05:43:05;53.05;;;22.92;;
24357;SDS011;13668;52.154;5.580;2023-01-26T05:45:32;54.67;;;23.60;;
24357;SDS011;13668;52.154;5.580;2023-01-26T05:47:58;58.65;;;25.58;;
24357;SDS011;13668;52.154;5.580;2023-01-26T05:50:24;56.75;;;24.33;;
24357;SDS011;13668;52.154;5.580;2023-01-26T05:52:50;57.03;;;23.80;;
24357;SDS011;13668;52.154;5.580;2023-01-26T05:55:16;60.92;;;24.75;;
24357;SDS011;13668;52.154;5.580;2023-01-26T05:57:42;57.10;;;24.80;;
24357;SDS011;13668;52.154;5.580;2023-01-26T06:00:09;56.97;;;24.73;;
24357;SDS011;13668;52.154;5.580;2023-01-26T06:02:35;60.38;;;25.88;;
24357;SDS011;13668;52.154;5.580;2023-01-26T06:05:01;61.58;;;25.88;;
24357;SDS011;13668;52.154;5.580;2023-01-26T06:07:27;63.95;;;25.65;;
24357;SDS011;13668;52.154;5.580;2023-01-26T06:09:53;56.03;;;23.50;;
24357;SDS011;13668;52.154;5.580;2023-01-26T06:12:19;62.25;;;24.23;;
24357;SDS011;13668;52.154;5.580;2023-01-26T06:14:45;56.88;;;25.83;;
24357;SDS011;13668;52.154;5.580;2023-01-26T06:17:15;63.70;;;24.63;;
24357;SDS011;13668;52.154;5.580;2023-01-26T06:19:41;64.47;;;25.40;;
24357;SDS011;13668;52.154;5.580;2023-01-26T06:22:08;63.15;;;25.65;;
24357;SDS011;13668;52.154;5.580;2023-01-26T06:24:34;57.47;;;24.85;;
24357;SDS011;13668;52.154;5.580;2023-01-26T06:27:00;63.25;;;25.73;;
24357;SDS011;13668;52.154;5.580;2023-01-26T06:29:26;58.95;;;24.58;;
24357;SDS011;13668;52.154;5.580;2023-01-26T06:31:52;68.00;;;25.17;;
24357;SDS011;13668;52.154;5.580;2023-01-26T06:34:18;64.72;;;26.08;;
24357;SDS011;13668;52.154;5.580;2023-01-26T06:36:44;59.33;;;24.75;;
24357;SDS011;13668;52.154;5.580;2023-01-26T06:39:10;58.35;;;25.17;;
24357;SDS011;13668;52.154;5.580;2023-01-26T06:41:37;60.97;;;26.70;;
24357;SDS011;13668;52.154;5.580;2023-01-26T06:44:03;62.25;;;26.92;;
24357;SDS011;13668;52.154;5.580;2023-01-26T06:46:29;60.55;;;25.00;;
24357;SDS011;13668;52.154;5.580;2023-01-26T06:48:55;65.13;;;27.02;;
24357;SDS011;13668;52.154;5.580;2023-01-26T06:56:13;60.63;;;25.00;;
24357;SDS011;13668;52.154;5.580;2023-01-26T06:58:39;65.03;;;24.42;;
24357;SDS011;13668;52.154;5.580;2023-01-26T07:01:05;63.20;;;27.77;;
24357;SDS011;13668;52.154;5.580;2023-01-26T07:03:31;62.83;;;26.13;;
24357;SDS011;13668;52.154;5.580;2023-01-26T07:05:57;63.22;;;24.63;;
24357;SDS011;13668;52.154;5.580;2023-01-26T07:08:23;64.60;;;25.67;;
24357;SDS011;13668;52.154;5.580;2023-01-26T07:10:49;64.05;;;26.30;;
24357;SDS011;13668;52.154;5.580;2023-01-26T07:13:15;67.43;;;27.35;;
24357;SDS011;13668;52.154;5.580;2023-01-26T07:15:41;70.30;;;27.02;;
24357;SDS011;13668;52.154;5.580;2023-01-26T07:18:07;72.55;;;27.50;;
24357;SDS011;13668;52.154;5.580;2023-01-26T07:20:33;63.75;;;26.45;;
24357;SDS011;13668;52.154;5.580;2023-01-26T07:22:59;71.28;;;29.50;;
24357;SDS011;13668;52.154;5.580;2023-01-26T07:25:25;67.57;;;26.60;;
24357;SDS011;13668;52.154;5.580;2023-01-26T07:27:57;64.75;;;25.67;;
24357;SDS011;13668;52.154;5.580;2023-01-26T07:30:24;69.70;;;28.95;;
24357;SDS011;13668;52.154;5.580;2023-01-26T07:32:50;72.75;;;27.00;;
24357;SDS011;13668;52.154;5.580;2023-01-26T07:35:16;67.90;;;27.85;;
24357;SDS011;13668;52.154;5.580;2023-01-26T07:37:42;68.45;;;26.75;;
24357;SDS011;13668;52.154;5.580;2023-01-26T07:40:08;70.78;;;27.77;;
24357;SDS011;13668;52.154;5.580;2023-01-26T07:42:34;68.28;;;27.38;;
24357;SDS011;13668;52.154;5.580;2023-01-26T07:45:00;74.05;;;28.83;;
24357;SDS011;13668;52.154;5.580;2023-01-26T07:47:26;73.80;;;27.38;;
24357;SDS011;13668;52.154;5.580;2023-01-26T07:49:52;76.28;;;29.65;;
24357;SDS011;13668;52.154;5.580;2023-01-26T07:52:18;70.00;;;27.40;;
24357;SDS011;13668;52.154;5.580;2023-01-26T07:54:44;72.65;;;27.58;;
24357;SDS011;13668;52.154;5.580;2023-01-26T07:57:10;69.10;;;28.63;;
24357;SDS011;13668;52.154;5.580;2023-01-26T07:59:37;75.55;;;28.50;;
24357;SDS011;13668;52.154;5.580;2023-01-26T08:02:03;74.90;;;27.35;;
24357;SDS011;13668;52.154;5.580;2023-01-26T08:04:29;67.78;;;27.17;;
24357;SDS011;13668;52.154;5.580;2023-01-26T08:06:54;73.22;;;29.48;;
24357;SDS011;13668;52.154;5.580;2023-01-26T08:09:20;70.43;;;28.15;;
24357;SDS011;13668;52.154;5.580;2023-01-26T08:11:46;75.70;;;29.75;;
24357;SDS011;13668;52.154;5.580;2023-01-26T08:14:12;73.85;;;28.25;;
24357;SDS011;13668;52.154;5.580;2023-01-26T08:16:38;72.15;;;27.05;;
24357;SDS011;13668;52.154;5.580;2023-01-26T08:19:04;77.53;;;29.17;;
24357;SDS011;13668;52.154;5.580;2023-01-26T08:21:30;63.75;;;27.15;;
24357;SDS011;13668;52.154;5.580;2023-01-26T08:23:56;71.57;;;28.55;;
24357;SDS011;13668;52.154;5.580;2023-01-26T08:26:25;71.57;;;29.20;;
24357;SDS011;13668;52.154;5.580;2023-01-26T08:28:51;68.70;;;28.13;;
24357;SDS011;13668;52.154;5.580;2023-01-26T08:31:18;68.22;;;29.27;;
24357;SDS011;13668;52.154;5.580;2023-01-26T08:33:46;79.50;;;30.25;;
24357;SDS011;13668;52.154;5.580;2023-01-26T08:36:12;73.82;;;27.40;;
24357;SDS011;13668;52.154;5.580;2023-01-26T08:38:39;74.35;;;28.42;;
24357;SDS011;13668;52.154;5.580;2023-01-26T08:41:06;68.35;;;26.15;;
24357;SDS011;13668;52.154;5.580;2023-01-26T08:43:32;65.85;;;26.23;;
24357;SDS011;13668;52.154;5.580;2023-01-26T08:45:58;72.55;;;27.42;;
24357;SDS011;13668;52.154;5.580;2023-01-26T08:48:24;71.72;;;26.75;;
24357;SDS011;13668;52.154;5.580;2023-01-26T08:50:53;77.15;;;28.48;;
24357;SDS011;13668;52.154;5.580;2023-01-26T08:53:23;64.45;;;26.60;;
24357;SDS011;13668;52.154;5.580;2023-01-26T08:55:49;71.00;;;26.55;;
24357;SDS011;13668;52.154;5.580;2023-01-26T08:58:15;57.60;;;23.90;;
24357;SDS011;13668;52.154;5.580;2023-01-26T09:00:41;63.33;;;24.92;;
24357;SDS011;13668;52.154;5.580;2023-01-26T09:03:07;68.03;;;25.48;;
24357;SDS011;13668;52.154;5.580;2023-01-26T09:05:35;69.47;;;25.77;;
24357;SDS011;13668;52.154;5.580;2023-01-26T09:08:02;62.13;;;25.00;;
24357;SDS011;13668;52.154;5.580;2023-01-26T09:10:28;63.42;;;25.92;;
24357;SDS011;13668;52.154;5.580;2023-01-26T09:12:57;60.17;;;24.23;;
24357;SDS011;13668;52.154;5.580;2023-01-26T09:15:23;60.55;;;24.52;;
24357;SDS011;13668;52.154;5.580;2023-01-26T09:17:50;57.35;;;23.80;;
24357;SDS011;13668;52.154;5.580;2023-01-26T09:20:16;59.42;;;24.02;;
24357;SDS011;13668;52.154;5.580;2023-01-26T09:22:42;52.42;;;21.73;;
24357;SDS011;13668;52.154;5.580;2023-01-26T09:25:08;58.25;;;22.75;;
24357;SDS011;13668;52.154;5.580;2023-01-26T09:27:34;54.60;;;24.30;;
24357;SDS011;13668;52.154;5.580;2023-01-26T09:30:01;59.15;;;21.65;;
24357;SDS011;13668;52.154;5.580;2023-01-26T09:32:27;52.15;;;19.52;;
24357;SDS011;13668;52.154;5.580;2023-01-26T09:34:54;47.80;;;21.40;;
24357;SDS011;13668;52.154;5.580;2023-01-26T09:37:20;43.70;;;19.48;;
24357;SDS011;13668;52.154;5.580;2023-01-26T09:39:46;48.45;;;20.80;;
24357;SDS011;13668;52.154;5.580;2023-01-26T09:44:49;46.47;;;19.65;;
24357;SDS011;13668;52.154;5.580;2023-01-26T09:47:20;47.97;;;20.02;;
24357;SDS011;13668;52.154;5.580;2023-01-26T09:49:49;46.67;;;18.77;;
24357;SDS011;13668;52.154;5.580;2023-01-26T09:54:54;48.00;;;18.88;;
24357;SDS011;13668;52.154;5.580;2023-01-26T10:05:13;44.47;;;16.88;;
24357;SDS011;13668;52.154;5.580;2023-01-26T10:07:42;37.60;;;17.38;;
24357;SDS011;13668;52.154;5.580;2023-01-26T10:10:12;44.45;;;17.95;;
24357;SDS011;13668;52.154;5.580;2023-01-26T10:12:38;41.05;;;17.73;;
24357;SDS011;13668;52.154;5.580;2023-01-26T10:20:05;44.13;;;16.90;;
24357;SDS011;13668;52.154;5.580;2023-01-26T10:22:45;38.05;;;16.92;;
24357;SDS011;13668;52.154;5.580;2023-01-26T10:25:13;43.17;;;17.33;;
24357;SDS011;13668;52.154;5.580;2023-01-26T10:27:40;41.55;;;16.75;;
24357;SDS011;13668;52.154;5.580;2023-01-26T10:30:11;43.05;;;16.27;;
24357;SDS011;13668;52.154;5.580;2023-01-26T10:32:37;39.78;;;14.50;;
24357;SDS011;13668;52.154;5.580;2023-01-26T10:35:04;40.88;;;14.32;;
24357;SDS011;13668;52.154;5.580;2023-01-26T10:37:32;45.35;;;15.27;;
24357;SDS011;13668;52.154;5.580;2023-01-26T10:40:02;41.15;;;14.40;;
24357;SDS011;13668;52.154;5.580;2023-01-26T10:42:29;39.83;;;13.88;;
24357;SDS011;13668;52.154;5.580;2023-01-26T10:44:56;36.95;;;12.35;;
24357;SDS011;13668;52.154;5.580;2023-01-26T10:47:22;38.25;;;12.55;;
24357;SDS011;13668;52.154;5.580;2023-01-26T10:49:49;33.47;;;13.32;;
24357;SDS011;13668;52.154;5.580;2023-01-26T10:52:19;31.30;;;11.05;;
24357;SDS011;13668;52.154;5.580;2023-01-26T10:54:46;30.27;;;11.48;;
24357;SDS011;13668;52.154;5.580;2023-01-26T10:59:49;36.88;;;10.50;;
24357;SDS011;13668;52.154;5.580;2023-01-26T11:07:28;27.85;;;7.72;;
24357;SDS011;13668;52.154;5.580;2023-01-26T11:09:56;29.15;;;8.50;;
24357;SDS011;13668;52.154;5.580;2023-01-26T11:12:40;29.42;;;7.40;;
24357;SDS011;13668;52.154;5.580;2023-01-26T11:15:13;21.75;;;7.18;;
24357;SDS011;13668;52.154;5.580;2023-01-26T11:18:02;23.88;;;5.57;;
24357;SDS011;13668;52.154;5.580;2023-01-26T11:23:23;23.70;;;5.43;;
24357;SDS011;13668;52.154;5.580;2023-01-26T11:28:40;29.65;;;5.65;;
24357;SDS011;13668;52.154;5.580;2023-01-26T11:34:39;19.63;;;3.80;;
24357;SDS011;13668;52.154;5.580;2023-01-26T11:44:33;31.33;;;4.70;;
24357;SDS011;13668;52.154;5.580;2023-01-26T11:47:09;20.52;;;6.22;;
24357;SDS011;13668;52.154;5.580;2023-01-26T11:49:57;21.88;;;5.15;;
24357;SDS011;13668;52.154;5.580;2023-01-26T11:57:44;23.48;;;4.18;;
24357;SDS011;13668;52.154;5.580;2023-01-26T12:00:18;17.88;;;3.38;;
24357;SDS011;13668;52.154;5.580;2023-01-26T12:02:59;15.85;;;3.70;;
24357;SDS011;13668;52.154;5.580;2023-01-26T12:05:28;20.85;;;3.70;;
24357;SDS011;13668;52.154;5.580;2023-01-26T12:07:55;20.15;;;4.20;;
24357;SDS011;13668;52.154;5.580;2023-01-26T12:13:09;22.15;;;4.25;;
24357;SDS011;13668;52.154;5.580;2023-01-26T12:15:42;13.32;;;3.20;;
24357;SDS011;13668;52.154;5.580;2023-01-26T12:23:24;18.45;;;3.33;;
24357;SDS011;13668;52.154;5.580;2023-01-26T12:25:52;17.88;;;3.50;;
24357;SDS011;13668;52.154;5.580;2023-01-26T12:28:23;17.10;;;3.40;;
24357;SDS011;13668;52.154;5.580;2023-01-26T12:33:22;19.23;;;3.78;;
24357;SDS011;13668;52.154;5.580;2023-01-26T12:39:02;13.25;;;3.08;;
24357;SDS011;13668;52.154;5.580;2023-01-26T12:46:20;14.88;;;2.42;;
24357;SDS011;13668;52.154;5.580;2023-01-26T12:48:51;13.13;;;2.28;;
24357;SDS011;13668;52.154;5.580;2023-01-26T12:51:26;16.13;;;2.10;;
24357;SDS011;13668;52.154;5.580;2023-01-26T12:56:38;11.82;;;2.67;;
24357;SDS011;13668;52.154;5.580;2023-01-26T12:59:08;13.02;;;2.38;;
24357;SDS011;13668;52.154;5.580;2023-01-26T13:01:38;16.58;;;2.47;;
24357;SDS011;13668;52.154;5.580;2023-01-26T13:04:08;13.23;;;2.53;;
24357;SDS011;13668;52.154;5.580;2023-01-26T13:06:34;12.85;;;3.00;;
24357;SDS011;13668;52.154;5.580;2023-01-26T13:09:17;15.45;;;2.95;;
24357;SDS011;13668;52.154;5.580;2023-01-26T13:11:45;10.55;;;2.50;;
24357;SDS011;13668;52.154;5.580;2023-01-26T13:14:31;17.05;;;2.38;;
24357;SDS011;13668;52.154;5.580;2023-01-26T13:24:47;11.15;;;2.63;;
24357;SDS011;13668;52.154;5.580;2023-01-26T13:29:58;15.85;;;2.35;;
24357;SDS011;13668;52.154;5.580;2023-01-26T13:34:52;9.23;;;2.08;;
24357;SDS011;13668;52.154;5.580;2023-01-26T13:37:37;12.73;;;2.05;;
24357;SDS011;13668;52.154;5.580;2023-01-26T13:42:56;17.65;;;2.40;;
24357;SDS011;13668;52.154;5.580;2023-01-26T13:45:28;13.70;;;1.65;;
24357;SDS011;13668;52.154;5.580;2023-01-26T13:47:57;11.52;;;2.80;;
24357;SDS011;13668;52.154;5.580;2023-01-26T13:52:53;10.80;;;2.63;;
24357;SDS011;13668;52.154;5.580;2023-01-26T13:55:21;24.35;;;3.85;;
24357;SDS011;13668;52.154;5.580;2023-01-26T13:57:48;10.35;;;2.30;;
24357;SDS011;13668;52.154;5.580;2023-01-26T14:00:17;16.50;;;2.35;;
24357;SDS011;13668;52.154;5.580;2023-01-26T14:02:46;11.93;;;2.70;;
24357;SDS011;13668;52.154;5.580;2023-01-26T14:05:20;9.63;;;2.30;;
24357;SDS011;13668;52.154;5.580;2023-01-26T14:07:47;12.80;;;2.60;;
24357;SDS011;13668;52.154;5.580;2023-01-26T14:10:17;10.65;;;2.22;;
24357;SDS011;13668;52.154;5.580;2023-01-26T14:12:45;16.65;;;2.83;;
24357;SDS011;13668;52.154;5.580;2023-01-26T14:15:24;15.05;;;2.90;;
24357;SDS011;13668;52.154;5.580;2023-01-26T14:18:03;12.02;;;2.08;;
24357;SDS011;13668;52.154;5.580;2023-01-26T14:20:33;17.27;;;2.67;;
24357;SDS011;13668;52.154;5.580;2023-01-26T14:23:10;12.52;;;2.10;;
24357;SDS011;13668;52.154;5.580;2023-01-26T14:25:37;13.95;;;2.22;;
24357;SDS011;13668;52.154;5.580;2023-01-26T14:28:04;14.82;;;2.78;;
24357;SDS011;13668;52.154;5.580;2023-01-26T14:30:31;14.75;;;2.42;;
24357;SDS011;13668;52.154;5.580;2023-01-26T14:33:10;11.65;;;2.15;;
24357;SDS011;13668;52.154;5.580;2023-01-26T14:35:37;18.88;;;2.70;;
24357;SDS011;13668;52.154;5.580;2023-01-26T14:38:24;11.05;;;2.10;;
24357;SDS011;13668;52.154;5.580;2023-01-26T14:40:53;11.90;;;2.60;;
24357;SDS011;13668;52.154;5.580;2023-01-26T14:43:19;14.15;;;2.00;;
24357;SDS011;13668;52.154;5.580;2023-01-26T14:48:19;11.70;;;1.88;;
24357;SDS011;13668;52.154;5.580;2023-01-26T14:50:46;10.75;;;1.70;;
24357;SDS011;13668;52.154;5.580;2023-01-26T14:53:22;12.10;;;2.08;;
24357;SDS011;13668;52.154;5.580;2023-01-26T14:55:49;10.68;;;2.47;;
24357;SDS011;13668;52.154;5.580;2023-01-26T14:58:31;7.35;;;1.63;;
24357;SDS011;13668;52.154;5.580;2023-01-26T15:00:58;11.98;;;2.00;;
24357;SDS011;13668;52.154;5.580;2023-01-26T15:03:26;10.57;;;1.77;;
24357;SDS011;13668;52.154;5.580;2023-01-26T15:06:02;16.02;;;2.40;;
24357;SDS011;13668;52.154;5.580;2023-01-26T15:08:28;9.60;;;1.90;;
24357;SDS011;13668;52.154;5.580;2023-01-26T15:10:55;10.57;;;2.88;;
24357;SDS011;13668;52.154;5.580;2023-01-26T15:13:43;11.63;;;2.35;;
24357;SDS011;13668;52.154;5.580;2023-01-26T15:16:12;15.05;;;2.30;;
24357;SDS011;13668;52.154;5.580;2023-01-26T15:18:42;14.43;;;2.83;;
24357;SDS011;13668;52.154;5.580;2023-01-26T15:21:13;8.52;;;1.98;;
24357;SDS011;13668;52.154;5.580;2023-01-26T15:23:41;12.55;;;2.75;;
24357;SDS011;13668;52.154;5.580;2023-01-26T15:26:08;8.90;;;2.03;;
24357;SDS011;13668;52.154;5.580;2023-01-26T15:28:35;10.27;;;1.77;;
24357;SDS011;13668;52.154;5.580;2023-01-26T15:31:02;16.25;;;2.42;;
24357;SDS011;13668;52.154;5.580;2023-01-26T15:36:00;9.48;;;3.88;;
24357;SDS011;13668;52.154;5.580;2023-01-26T15:38:26;10.43;;;2.25;;
24357;SDS011;13668;52.154;5.580;2023-01-26T15:40:52;8.23;;;2.03;;
24357;SDS011;13668;52.154;5.580;2023-01-26T15:43:19;9.52;;;1.90;;
24357;SDS011;13668;52.154;5.580;2023-01-26T15:45:55;7.55;;;1.55;;
24357;SDS011;13668;52.154;5.580;2023-01-26T15:48:22;7.10;;;1.92;;
24357;SDS011;13668;52.154;5.580;2023-01-26T15:50:48;8.57;;;2.00;;
24357;SDS011;13668;52.154;5.580;2023-01-26T15:53:15;10.10;;;2.58;;
24357;SDS011;13668;52.154;5.580;2023-01-26T15:55:43;11.98;;;2.65;;
24357;SDS011;13668;52.154;5.580;2023-01-26T15:58:09;11.95;;;2.28;;
24357;SDS011;13668;52.154;5.580;2023-01-26T16:00:35;10.77;;;1.88;;
24357;SDS011;13668;52.154;5.580;2023-01-26T16:03:02;9.43;;;1.95;;
24357;SDS011;13668;52.154;5.580;2023-01-26T16:05:31;14.68;;;2.25;;
24357;SDS011;13668;52.154;5.580;2023-01-26T16:07:57;12.20;;;2.00;;
24357;SDS011;13668;52.154;5.580;2023-01-26T16:10:23;10.18;;;2.08;;
24357;SDS011;13668;52.154;5.580;2023-01-26T16:12:48;10.10;;;1.35;;
24357;SDS011;13668;52.154;5.580;2023-01-26T16:18:00;11.40;;;1.90;;
24357;SDS011;13668;52.154;5.580;2023-01-26T16:20:26;7.10;;;1.63;;